sensor_id;sensor_type;location;lat;lon;timestamp;temperature;humidity
20610;DHT22;10463;52.378;9.688;2023-07-29T00:02:30;30.30;31.20
20610;DHT22;10463;52.378;9.688;2023-07-29T00:05:17;30.30;31.10
20610;DHT22;10463;52.378;9.688;2023-07-29T00:08:03;30.30;31.10
20610;DHT22;10463;52.378;9.688;2023-07-29T00:10:48;30.30;31.20
20610;DHT22;10463;52.378;9.688;2023-07-29T00:13:32;30.20;31.10
20610;DHT22;10463;52.378;9.688;2023-07-29T00:16:17;30.20;31.10
20610;DHT22;10463;52.378;9.688;2023-07-29T00:19:02;30.20;31.80
20610;DHT22;10463;52.378;9.688;2023-07-29T00:21:48;30.20;31.10
20610;DHT22;10463;52.378;9.688;2023-07-29T00:24:34;30.20;31.10
20610;DHT22;10463;52.378;9.688;2023-07-29T00:27:18;30.20;31.10
20610;DHT22;10463;52.378;9.688;2023-07-29T00:30:04;30.20;31.10
20610;DHT22;10463;52.378;9.688;2023-07-29T00:32:49;30.20;31.10
20610;DHT22;10463;52.378;9.688;2023-07-29T00:35:34;30.20;31.10
20610;DHT22;10463;52.378;9.688;2023-07-29T00:38:20;30.20;31.80
20610;DHT22;10463;52.378;9.688;2023-07-29T00:41:07;30.20;31.10
20610;DHT22;10463;52.378;9.688;2023-07-29T00:43:53;30.20;31.20
20610;DHT22;10463;52.378;9.688;2023-07-29T00:46:38;30.20;31.10
20610;DHT22;10463;52.378;9.688;2023-07-29T00:49:24;30.20;31.10
20610;DHT22;10463;52.378;9.688;2023-07-29T00:52:09;30.20;31.10
20610;DHT22;10463;52.378;9.688;2023-07-29T00:54:56;30.20;31.10
20610;DHT22;10463;52.378;9.688;2023-07-29T00:57:42;30.20;31.10
20610;DHT22;10463;52.378;9.688;2023-07-29T01:00:32;30.20;31.10
20610;DHT22;10463;52.378;9.688;2023-07-29T01:03:17;30.20;31.80
20610;DHT22;10463;52.378;9.688;2023-07-29T01:06:12;30.20;31.10
20610;DHT22;10463;52.378;9.688;2023-07-29T01:09:02;30.20;31.10
20610;DHT22;10463;52.378;9.688;2023-07-29T01:11:58;30.20;31.20
20610;DHT22;10463;52.378;9.688;2023-07-29T01:14:54;30.20;31.10
20610;DHT22;10463;52.378;9.688;2023-07-29T01:17:44;30.10;31.00
20610;DHT22;10463;52.378;9.688;2023-07-29T01:20:33;30.10;31.00
20610;DHT22;10463;52.378;9.688;2023-07-29T01:23:24;30.10;31.10
20610;DHT22;10463;52.378;9.688;2023-07-29T01:26:09;30.10;31.10
20610;DHT22;10463;52.378;9.688;2023-07-29T01:28:53;30.10;31.00
20610;DHT22;10463;52.378;9.688;2023-07-29T01:31:43;30.10;31.10
20610;DHT22;10463;52.378;9.688;2023-07-29T01:34:35;30.10;31.10
20610;DHT22;10463;52.378;9.688;2023-07-29T01:37:26;30.10;31.10
20610;DHT22;10463;52.378;9.688;2023-07-29T01:40:14;30.10;31.10
20610;DHT22;10463;52.378;9.688;2023-07-29T01:42:59;30.10;31.10
20610;DHT22;10463;52.378;9.688;2023-07-29T01:45:44;30.10;31.00
20610;DHT22;10463;52.378;9.688;2023-07-29T01:48:29;30.10;31.00
20610;DHT22;10463;52.378;9.688;2023-07-29T01:51:16;30.10;31.00
20610;DHT22;10463;52.378;9.688;2023-07-29T01:54:01;30.10;31.10
20610;DHT22;10463;52.378;9.688;2023-07-29T01:56:46;30.10;31.10
20610;DHT22;10463;52.378;9.688;2023-07-29T01:59:31;30.10;31.10
20610;DHT22;10463;52.378;9.688;2023-07-29T02:02:16;30.10;31.10
20610;DHT22;10463;52.378;9.688;2023-07-29T02:05:00;30.10;31.10
20610;DHT22;10463;52.378;9.688;2023-07-29T02:07:45;30.10;31.10
20610;DHT22;10463;52.378;9.688;2023-07-29T02:10:29;30.10;31.10
20610;DHT22;10463;52.378;9.688;2023-07-29T02:13:16;30.00;31.00
20610;DHT22;10463;52.378;9.688;2023-07-29T02:16:00;30.00;31.00
20610;DHT22;10463;52.378;9.688;2023-07-29T02:18:45;30.00;31.00
20610;DHT22;10463;52.378;9.688;2023-07-29T02:21:30;30.00;31.00
20610;DHT22;10463;52.378;9.688;2023-07-29T02:24:15;30.00;31.00
20610;DHT22;10463;52.378;9.688;2023-07-29T02:26:59;30.00;31.00
20610;DHT22;10463;52.378;9.688;2023-07-29T02:29:46;30.00;31.00
20610;DHT22;10463;52.378;9.688;2023-07-29T02:32:31;30.00;31.70
20610;DHT22;10463;52.378;9.688;2023-07-29T02:35:16;30.00;31.70
20610;DHT22;10463;52.378;9.688;2023-07-29T02:38:01;30.00;31.00
20610;DHT22;10463;52.378;9.688;2023-07-29T02:40:46;30.00;31.00
20610;DHT22;10463;52.378;9.688;2023-07-29T02:43:30;30.00;31.10
20610;DHT22;10463;52.378;9.688;2023-07-29T02:46:17;30.00;31.00
20610;DHT22;10463;52.378;9.688;2023-07-29T02:49:03;30.00;31.00
20610;DHT22;10463;52.378;9.688;2023-07-29T02:51:48;30.00;31.00
20610;DHT22;10463;52.378;9.688;2023-07-29T02:54:33;30.00;31.00
20610;DHT22;10463;52.378;9.688;2023-07-29T02:57:18;30.00;31.00
20610;DHT22;10463;52.378;9.688;2023-07-29T03:00:04;30.00;31.10
20610;DHT22;10463;52.378;9.688;2023-07-29T03:02:54;30.00;31.00
20610;DHT22;10463;52.378;9.688;2023-07-29T03:05:38;30.00;31.10
20610;DHT22;10463;52.378;9.688;2023-07-29T03:08:23;29.90;31.00
20610;DHT22;10463;52.378;9.688;2023-07-29T03:11:09;30.00;31.00
20610;DHT22;10463;52.378;9.688;2023-07-29T03:13:54;30.00;31.10
20610;DHT22;10463;52.378;9.688;2023-07-29T03:16:40;30.00;31.00
20610;DHT22;10463;52.378;9.688;2023-07-29T03:19:26;30.00;31.70
20610;DHT22;10463;52.378;9.688;2023-07-29T03:22:10;29.90;31.00
20610;DHT22;10463;52.378;9.688;2023-07-29T03:24:55;29.90;31.00
20610;DHT22;10463;52.378;9.688;2023-07-29T03:27:40;29.90;31.00
20610;DHT22;10463;52.378;9.688;2023-07-29T03:30:25;29.90;31.00
20610;DHT22;10463;52.378;9.688;2023-07-29T03:33:11;29.90;31.00
20610;DHT22;10463;52.378;9.688;2023-07-29T03:35:57;29.90;31.00
20610;DHT22;10463;52.378;9.688;2023-07-29T03:38:41;29.90;31.00
20610;DHT22;10463;52.378;9.688;2023-07-29T03:41:26;29.90;31.00
20610;DHT22;10463;52.378;9.688;2023-07-29T03:44:11;29.90;31.00
20610;DHT22;10463;52.378;9.688;2023-07-29T03:46:56;29.90;31.00
20610;DHT22;10463;52.378;9.688;2023-07-29T03:49:41;29.90;31.00
20610;DHT22;10463;52.378;9.688;2023-07-29T03:52:27;29.90;31.00
20610;DHT22;10463;52.378;9.688;2023-07-29T03:55:12;29.90;31.00
20610;DHT22;10463;52.378;9.688;2023-07-29T03:57:57;29.90;31.00
20610;DHT22;10463;52.378;9.688;2023-07-29T04:00:42;29.90;31.00
20610;DHT22;10463;52.378;9.688;2023-07-29T04:03:27;29.90;31.00
20610;DHT22;10463;52.378;9.688;2023-07-29T04:06:13;29.90;31.00
20610;DHT22;10463;52.378;9.688;2023-07-29T04:08:59;29.90;31.00
20610;DHT22;10463;52.378;9.688;2023-07-29T04:11:44;29.90;31.00
20610;DHT22;10463;52.378;9.688;2023-07-29T04:14:29;29.90;31.00
20610;DHT22;10463;52.378;9.688;2023-07-29T04:17:14;29.90;31.00
20610;DHT22;10463;52.378;9.688;2023-07-29T04:19:59;29.90;31.00
20610;DHT22;10463;52.378;9.688;2023-07-29T04:22:50;29.90;31.00
20610;DHT22;10463;52.378;9.688;2023-07-29T04:25:36;29.90;31.00
20610;DHT22;10463;52.378;9.688;2023-07-29T04:28:21;29.90;31.00
20610;DHT22;10463;52.378;9.688;2023-07-29T04:31:06;29.90;31.00
20610;DHT22;10463;52.378;9.688;2023-07-29T04:33:51;29.90;31.00
20610;DHT22;10463;52.378;9.688;2023-07-29T04:36:36;29.90;31.00
20610;DHT22;10463;52.378;9.688;2023-07-29T04:39:21;29.90;31.00
20610;DHT22;10463;52.378;9.688;2023-07-29T04:42:07;29.90;31.00
20610;DHT22;10463;52.378;9.688;2023-07-29T04:44:53;29.80;31.00
20610;DHT22;10463;52.378;9.688;2023-07-29T04:47:38;29.90;31.00
20610;DHT22;10463;52.378;9.688;2023-07-29T04:50:23;29.90;31.00
20610;DHT22;10463;52.378;9.688;2023-07-29T04:53:08;29.90;31.00
20610;DHT22;10463;52.378;9.688;2023-07-29T04:55:52;29.80;30.90
20610;DHT22;10463;52.378;9.688;2023-07-29T04:58:40;29.90;31.00
20610;DHT22;10463;52.378;9.688;2023-07-29T05:01:25;29.80;31.00
20610;DHT22;10463;52.378;9.688;2023-07-29T05:04:10;29.80;30.90
20610;DHT22;10463;52.378;9.688;2023-07-29T05:06:55;29.80;31.00
20610;DHT22;10463;52.378;9.688;2023-07-29T05:09:40;29.80;31.00
20610;DHT22;10463;52.378;9.688;2023-07-29T05:12:26;29.80;31.00
20610;DHT22;10463;52.378;9.688;2023-07-29T05:15:12;29.80;31.00
20610;DHT22;10463;52.378;9.688;2023-07-29T05:17:57;29.80;31.00
20610;DHT22;10463;52.378;9.688;2023-07-29T05:20:42;29.80;31.00
20610;DHT22;10463;52.378;9.688;2023-07-29T05:23:27;29.80;31.00
20610;DHT22;10463;52.378;9.688;2023-07-29T05:26:11;29.80;31.00
20610;DHT22;10463;52.378;9.688;2023-07-29T05:28:56;29.80;31.00
20610;DHT22;10463;52.378;9.688;2023-07-29T05:31:42;29.80;31.00
20610;DHT22;10463;52.378;9.688;2023-07-29T05:34:27;29.80;31.00
20610;DHT22;10463;52.378;9.688;2023-07-29T05:37:12;29.80;31.00
20610;DHT22;10463;52.378;9.688;2023-07-29T05:39:56;29.80;31.00
20610;DHT22;10463;52.378;9.688;2023-07-29T05:42:42;29.80;31.00
20610;DHT22;10463;52.378;9.688;2023-07-29T05:45:26;29.80;31.00
20610;DHT22;10463;52.378;9.688;2023-07-29T05:48:13;29.80;31.00
20610;DHT22;10463;52.378;9.688;2023-07-29T05:50:57;29.80;31.00
20610;DHT22;10463;52.378;9.688;2023-07-29T05:53:42;29.80;31.00
20610;DHT22;10463;52.378;9.688;2023-07-29T05:56:27;29.80;31.70
20610;DHT22;10463;52.378;9.688;2023-07-29T05:59:12;29.80;31.10
20610;DHT22;10463;52.378;9.688;2023-07-29T06:01:57;29.80;31.10
20610;DHT22;10463;52.378;9.688;2023-07-29T06:04:43;29.80;31.10
20610;DHT22;10463;52.378;9.688;2023-07-29T06:07:28;29.80;31.10
20610;DHT22;10463;52.378;9.688;2023-07-29T06:10:16;29.80;31.10
20610;DHT22;10463;52.378;9.688;2023-07-29T06:13:02;29.80;31.10
20610;DHT22;10463;52.378;9.688;2023-07-29T06:15:48;29.80;31.10
20610;DHT22;10463;52.378;9.688;2023-07-29T06:18:32;29.80;31.10
20610;DHT22;10463;52.378;9.688;2023-07-29T06:21:19;29.80;31.10
20610;DHT22;10463;52.378;9.688;2023-07-29T06:24:04;29.80;31.10
20610;DHT22;10463;52.378;9.688;2023-07-29T06:26:49;29.80;31.10
20610;DHT22;10463;52.378;9.688;2023-07-29T06:29:34;29.80;31.10
20610;DHT22;10463;52.378;9.688;2023-07-29T06:32:19;29.80;31.10
20610;DHT22;10463;52.378;9.688;2023-07-29T06:35:04;29.80;31.10
20610;DHT22;10463;52.378;9.688;2023-07-29T06:37:50;29.80;31.10
20610;DHT22;10463;52.378;9.688;2023-07-29T06:40:34;29.80;31.20
20610;DHT22;10463;52.378;9.688;2023-07-29T06:43:19;29.80;31.10
20610;DHT22;10463;52.378;9.688;2023-07-29T06:46:04;29.80;31.10
20610;DHT22;10463;52.378;9.688;2023-07-29T06:48:49;29.80;31.10
20610;DHT22;10463;52.378;9.688;2023-07-29T06:51:33;29.80;31.10
20610;DHT22;10463;52.378;9.688;2023-07-29T06:54:24;29.80;31.20
20610;DHT22;10463;52.378;9.688;2023-07-29T06:57:09;29.80;31.20
20610;DHT22;10463;52.378;9.688;2023-07-29T06:59:54;29.80;31.20
20610;DHT22;10463;52.378;9.688;2023-07-29T07:02:39;29.80;31.20
20610;DHT22;10463;52.378;9.688;2023-07-29T07:05:23;29.80;31.20
20610;DHT22;10463;52.378;9.688;2023-07-29T07:08:08;29.80;31.20
20610;DHT22;10463;52.378;9.688;2023-07-29T07:10:54;29.80;31.20
20610;DHT22;10463;52.378;9.688;2023-07-29T07:13:38;29.80;31.20
20610;DHT22;10463;52.378;9.688;2023-07-29T07:16:23;29.80;31.30
20610;DHT22;10463;52.378;9.688;2023-07-29T07:19:08;29.80;31.90
20610;DHT22;10463;52.378;9.688;2023-07-29T07:21:52;29.80;31.20
20610;DHT22;10463;52.378;9.688;2023-07-29T07:24:37;29.80;31.30
20610;DHT22;10463;52.378;9.688;2023-07-29T07:27:23;29.80;31.30
20610;DHT22;10463;52.378;9.688;2023-07-29T07:30:08;29.80;31.30
20610;DHT22;10463;52.378;9.688;2023-07-29T07:32:53;29.80;31.30
20610;DHT22;10463;52.378;9.688;2023-07-29T07:35:38;29.80;31.30
20610;DHT22;10463;52.378;9.688;2023-07-29T07:38:22;29.80;31.30
20610;DHT22;10463;52.378;9.688;2023-07-29T07:41:07;29.80;31.30
20610;DHT22;10463;52.378;9.688;2023-07-29T07:43:53;29.80;31.30
20610;DHT22;10463;52.378;9.688;2023-07-29T07:46:38;29.80;31.30
20610;DHT22;10463;52.378;9.688;2023-07-29T07:52:09;29.80;31.30
20610;DHT22;10463;52.378;9.688;2023-07-29T07:54:54;29.80;31.30
20610;DHT22;10463;52.378;9.688;2023-07-29T07:57:39;29.80;31.30
20610;DHT22;10463;52.378;9.688;2023-07-29T08:00:25;29.80;31.40
20610;DHT22;10463;52.378;9.688;2023-07-29T08:03:10;29.80;31.40
20610;DHT22;10463;52.378;9.688;2023-07-29T08:05:55;29.80;31.40
20610;DHT22;10463;52.378;9.688;2023-07-29T08:08:39;29.80;31.50
20610;DHT22;10463;52.378;9.688;2023-07-29T08:11:25;29.80;31.50
20610;DHT22;10463;52.378;9.688;2023-07-29T08:14:10;29.80;31.50
20610;DHT22;10463;52.378;9.688;2023-07-29T08:16:56;29.90;31.50
20610;DHT22;10463;52.378;9.688;2023-07-29T08:19:40;29.90;31.50
20610;DHT22;10463;52.378;9.688;2023-07-29T08:22:25;29.90;31.50
20610;DHT22;10463;52.378;9.688;2023-07-29T08:25:10;29.90;31.60
20610;DHT22;10463;52.378;9.688;2023-07-29T08:27:55;29.90;31.60
20610;DHT22;10463;52.378;9.688;2023-07-29T08:30:39;29.80;31.60
20610;DHT22;10463;52.378;9.688;2023-07-29T08:33:26;29.90;31.60
20610;DHT22;10463;52.378;9.688;2023-07-29T08:36:11;29.90;31.60
20610;DHT22;10463;52.378;9.688;2023-07-29T08:38:56;29.90;31.60
20610;DHT22;10463;52.378;9.688;2023-07-29T08:41:55;29.90;31.60
20610;DHT22;10463;52.378;9.688;2023-07-29T08:44:43;29.90;31.60
20610;DHT22;10463;52.378;9.688;2023-07-29T08:47:28;29.90;31.60
20610;DHT22;10463;52.378;9.688;2023-07-29T08:50:15;29.90;31.60
20610;DHT22;10463;52.378;9.688;2023-07-29T08:53:01;29.90;31.60
20610;DHT22;10463;52.378;9.688;2023-07-29T08:55:48;29.90;31.60
20610;DHT22;10463;52.378;9.688;2023-07-29T08:58:33;29.90;31.60
20610;DHT22;10463;52.378;9.688;2023-07-29T09:01:19;29.90;31.60
20610;DHT22;10463;52.378;9.688;2023-07-29T09:04:04;29.90;31.60
20610;DHT22;10463;52.378;9.688;2023-07-29T09:06:51;29.90;31.70
20610;DHT22;10463;52.378;9.688;2023-07-29T09:09:36;29.90;31.70
20610;DHT22;10463;52.378;9.688;2023-07-29T09:12:21;29.90;31.60
20610;DHT22;10463;52.378;9.688;2023-07-29T09:15:08;29.90;31.60
20610;DHT22;10463;52.378;9.688;2023-07-29T09:17:54;29.90;31.70
20610;DHT22;10463;52.378;9.688;2023-07-29T09:20:39;29.90;31.70
20610;DHT22;10463;52.378;9.688;2023-07-29T09:23:26;29.90;31.80
20610;DHT22;10463;52.378;9.688;2023-07-29T09:26:12;29.90;31.80
20610;DHT22;10463;52.378;9.688;2023-07-29T09:28:58;30.00;31.80
20610;DHT22;10463;52.378;9.688;2023-07-29T09:31:43;29.90;31.80
20610;DHT22;10463;52.378;9.688;2023-07-29T09:34:28;30.00;31.90
20610;DHT22;10463;52.378;9.688;2023-07-29T09:37:17;30.00;31.90
20610;DHT22;10463;52.378;9.688;2023-07-29T09:40:05;30.00;31.90
20610;DHT22;10463;52.378;9.688;2023-07-29T09:42:51;30.00;31.90
20610;DHT22;10463;52.378;9.688;2023-07-29T09:45:37;30.00;31.90
20610;DHT22;10463;52.378;9.688;2023-07-29T09:48:23;30.00;31.90
20610;DHT22;10463;52.378;9.688;2023-07-29T09:51:11;30.00;32.00
20610;DHT22;10463;52.378;9.688;2023-07-29T09:53:56;30.00;32.00
20610;DHT22;10463;52.378;9.688;2023-07-29T09:56:44;30.00;32.00
20610;DHT22;10463;52.378;9.688;2023-07-29T09:59:33;30.00;32.10
20610;DHT22;10463;52.378;9.688;2023-07-29T10:02:19;30.00;32.10
20610;DHT22;10463;52.378;9.688;2023-07-29T10:05:07;30.00;32.10
20610;DHT22;10463;52.378;9.688;2023-07-29T10:07:53;30.00;32.10
20610;DHT22;10463;52.378;9.688;2023-07-29T10:10:38;30.00;32.10
20610;DHT22;10463;52.378;9.688;2023-07-29T10:13:25;30.00;32.10
20610;DHT22;10463;52.378;9.688;2023-07-29T10:16:11;30.00;32.10
20610;DHT22;10463;52.378;9.688;2023-07-29T10:18:57;30.00;32.10
20610;DHT22;10463;52.378;9.688;2023-07-29T10:21:44;30.10;32.20
20610;DHT22;10463;52.378;9.688;2023-07-29T10:24:33;30.10;32.20
20610;DHT22;10463;52.378;9.688;2023-07-29T10:27:19;30.10;32.20
20610;DHT22;10463;52.378;9.688;2023-07-29T10:30:10;30.10;32.90
20610;DHT22;10463;52.378;9.688;2023-07-29T10:32:58;30.10;32.20
20610;DHT22;10463;52.378;9.688;2023-07-29T10:35:43;30.10;32.20
20610;DHT22;10463;52.378;9.688;2023-07-29T10:38:29;30.10;32.20
20610;DHT22;10463;52.378;9.688;2023-07-29T10:41:13;30.10;32.20
20610;DHT22;10463;52.378;9.688;2023-07-29T10:43:58;30.10;32.20
20610;DHT22;10463;52.378;9.688;2023-07-29T10:46:44;30.10;32.20
20610;DHT22;10463;52.378;9.688;2023-07-29T10:49:28;30.10;32.20
20610;DHT22;10463;52.378;9.688;2023-07-29T10:52:17;30.10;32.20
20610;DHT22;10463;52.378;9.688;2023-07-29T10:55:27;30.10;32.10
20610;DHT22;10463;52.378;9.688;2023-07-29T10:58:16;30.10;32.20
20610;DHT22;10463;52.378;9.688;2023-07-29T11:01:12;30.20;32.20
20610;DHT22;10463;52.378;9.688;2023-07-29T11:04:28;30.10;32.10
20610;DHT22;10463;52.378;9.688;2023-07-29T11:07:27;30.10;32.20
20610;DHT22;10463;52.378;9.688;2023-07-29T11:10:13;30.20;32.40
20610;DHT22;10463;52.378;9.688;2023-07-29T11:12:58;30.20;32.20
20610;DHT22;10463;52.378;9.688;2023-07-29T11:15:46;30.20;32.10
20610;DHT22;10463;52.378;9.688;2023-07-29T11:18:34;30.20;32.10
20610;DHT22;10463;52.378;9.688;2023-07-29T11:21:20;30.20;32.10
20610;DHT22;10463;52.378;9.688;2023-07-29T11:24:07;30.20;32.10
20610;DHT22;10463;52.378;9.688;2023-07-29T11:26:53;30.20;32.10
20610;DHT22;10463;52.378;9.688;2023-07-29T11:29:37;30.20;32.20
20610;DHT22;10463;52.378;9.688;2023-07-29T11:32:22;30.20;32.20
20610;DHT22;10463;52.378;9.688;2023-07-29T11:35:09;30.20;32.10
20610;DHT22;10463;52.378;9.688;2023-07-29T11:37:56;30.30;32.20
20610;DHT22;10463;52.378;9.688;2023-07-29T11:40:42;30.30;32.20
20610;DHT22;10463;52.378;9.688;2023-07-29T11:43:27;30.30;32.20
20610;DHT22;10463;52.378;9.688;2023-07-29T11:46:11;30.30;32.20
20610;DHT22;10463;52.378;9.688;2023-07-29T11:48:57;30.30;32.20
20610;DHT22;10463;52.378;9.688;2023-07-29T11:51:42;30.30;32.20
20610;DHT22;10463;52.378;9.688;2023-07-29T11:54:28;30.30;32.10
20610;DHT22;10463;52.378;9.688;2023-07-29T11:57:13;30.30;32.10
20610;DHT22;10463;52.378;9.688;2023-07-29T11:59:59;30.30;32.10
20610;DHT22;10463;52.378;9.688;2023-07-29T12:02:53;30.40;32.80
20610;DHT22;10463;52.378;9.688;2023-07-29T12:05:38;30.30;32.00
20610;DHT22;10463;52.378;9.688;2023-07-29T12:08:24;30.40;32.10
20610;DHT22;10463;52.378;9.688;2023-07-29T12:11:10;30.40;32.10
20610;DHT22;10463;52.378;9.688;2023-07-29T12:13:55;30.40;32.10
20610;DHT22;10463;52.378;9.688;2023-07-29T12:16:41;30.40;32.00
20610;DHT22;10463;52.378;9.688;2023-07-29T12:19:32;30.40;32.00
20610;DHT22;10463;52.378;9.688;2023-07-29T12:22:19;30.50;32.10
20610;DHT22;10463;52.378;9.688;2023-07-29T12:25:04;30.50;32.00
20610;DHT22;10463;52.378;9.688;2023-07-29T12:27:51;30.50;32.00
20610;DHT22;10463;52.378;9.688;2023-07-29T12:30:41;30.50;32.00
20610;DHT22;10463;52.378;9.688;2023-07-29T12:33:30;30.50;31.90
20610;DHT22;10463;52.378;9.688;2023-07-29T12:36:16;30.50;31.90
20610;DHT22;10463;52.378;9.688;2023-07-29T12:39:01;30.50;31.90
20610;DHT22;10463;52.378;9.688;2023-07-29T12:41:46;30.50;31.90
20610;DHT22;10463;52.378;9.688;2023-07-29T12:44:33;30.50;31.90
20610;DHT22;10463;52.378;9.688;2023-07-29T12:47:18;30.50;31.80
20610;DHT22;10463;52.378;9.688;2023-07-29T12:50:03;30.60;31.90
20610;DHT22;10463;52.378;9.688;2023-07-29T12:52:48;30.50;31.80
20610;DHT22;10463;52.378;9.688;2023-07-29T12:55:33;30.60;31.80
20610;DHT22;10463;52.378;9.688;2023-07-29T12:58:18;30.60;31.80
20610;DHT22;10463;52.378;9.688;2023-07-29T13:01:04;30.60;31.70
20610;DHT22;10463;52.378;9.688;2023-07-29T13:03:48;30.60;31.70
20610;DHT22;10463;52.378;9.688;2023-07-29T13:06:33;30.60;31.70
20610;DHT22;10463;52.378;9.688;2023-07-29T13:09:18;30.60;31.70
20610;DHT22;10463;52.378;9.688;2023-07-29T13:12:02;30.60;31.60
20610;DHT22;10463;52.378;9.688;2023-07-29T13:14:47;30.60;31.60
20610;DHT22;10463;52.378;9.688;2023-07-29T13:17:34;30.70;31.70
20610;DHT22;10463;52.378;9.688;2023-07-29T13:20:18;30.60;31.60
20610;DHT22;10463;52.378;9.688;2023-07-29T13:23:03;30.70;31.70
20610;DHT22;10463;52.378;9.688;2023-07-29T13:25:47;30.70;31.60
20610;DHT22;10463;52.378;9.688;2023-07-29T13:28:32;30.70;31.90
20610;DHT22;10463;52.378;9.688;2023-07-29T13:31:17;30.70;31.60
20610;DHT22;10463;52.378;9.688;2023-07-29T13:34:03;30.70;31.50
20610;DHT22;10463;52.378;9.688;2023-07-29T13:36:48;30.70;31.60
20610;DHT22;10463;52.378;9.688;2023-07-29T13:39:32;30.70;31.50
20610;DHT22;10463;52.378;9.688;2023-07-29T13:42:17;30.70;32.30
20610;DHT22;10463;52.378;9.688;2023-07-29T13:45:02;30.70;31.50
20610;DHT22;10463;52.378;9.688;2023-07-29T13:47:48;30.70;31.50
20610;DHT22;10463;52.378;9.688;2023-07-29T13:50:35;30.80;31.50
20610;DHT22;10463;52.378;9.688;2023-07-29T13:53:19;30.80;31.50
20610;DHT22;10463;52.378;9.688;2023-07-29T13:56:04;30.80;31.40
20610;DHT22;10463;52.378;9.688;2023-07-29T13:58:49;30.80;31.40
20610;DHT22;10463;52.378;9.688;2023-07-29T14:01:34;30.80;31.30
20610;DHT22;10463;52.378;9.688;2023-07-29T14:04:18;30.80;31.40
20610;DHT22;10463;52.378;9.688;2023-07-29T14:07:05;30.80;31.30
20610;DHT22;10463;52.378;9.688;2023-07-29T14:09:49;30.80;31.30
20610;DHT22;10463;52.378;9.688;2023-07-29T14:12:34;30.90;31.40
20610;DHT22;10463;52.378;9.688;2023-07-29T14:15:19;30.90;31.30
20610;DHT22;10463;52.378;9.688;2023-07-29T14:18:04;30.90;31.40
20610;DHT22;10463;52.378;9.688;2023-07-29T14:20:48;30.90;31.30
20610;DHT22;10463;52.378;9.688;2023-07-29T14:23:37;30.90;31.30
20610;DHT22;10463;52.378;9.688;2023-07-29T14:26:21;30.90;31.30
20610;DHT22;10463;52.378;9.688;2023-07-29T14:29:06;30.90;31.30
20610;DHT22;10463;52.378;9.688;2023-07-29T14:31:51;30.90;31.30
20610;DHT22;10463;52.378;9.688;2023-07-29T14:34:35;30.90;31.20
20610;DHT22;10463;52.378;9.688;2023-07-29T14:37:20;30.90;31.20
20610;DHT22;10463;52.378;9.688;2023-07-29T14:40:08;30.90;31.30
20610;DHT22;10463;52.378;9.688;2023-07-29T14:42:52;30.90;31.30
20610;DHT22;10463;52.378;9.688;2023-07-29T14:45:37;31.00;30.90
20610;DHT22;10463;52.378;9.688;2023-07-29T14:48:22;31.00;30.30
20610;DHT22;10463;52.378;9.688;2023-07-29T14:51:07;31.00;29.70
20610;DHT22;10463;52.378;9.688;2023-07-29T14:53:51;31.00;29.40
20610;DHT22;10463;52.378;9.688;2023-07-29T14:56:37;31.00;29.50
20610;DHT22;10463;52.378;9.688;2023-07-29T14:59:22;31.00;29.40
20610;DHT22;10463;52.378;9.688;2023-07-29T15:02:06;31.00;29.00
20610;DHT22;10463;52.378;9.688;2023-07-29T15:04:51;31.00;29.00
20610;DHT22;10463;52.378;9.688;2023-07-29T15:07:36;31.00;28.90
20610;DHT22;10463;52.378;9.688;2023-07-29T15:10:21;31.00;28.90
20610;DHT22;10463;52.378;9.688;2023-07-29T15:13:07;31.00;28.90
20610;DHT22;10463;52.378;9.688;2023-07-29T15:15:53;31.00;28.80
20610;DHT22;10463;52.378;9.688;2023-07-29T15:18:38;31.00;28.50
20610;DHT22;10463;52.378;9.688;2023-07-29T15:21:22;31.00;28.50
20610;DHT22;10463;52.378;9.688;2023-07-29T15:24:07;30.90;28.50
20610;DHT22;10463;52.378;9.688;2023-07-29T15:26:52;30.90;28.60
20610;DHT22;10463;52.378;9.688;2023-07-29T15:29:38;30.90;28.50
20610;DHT22;10463;52.378;9.688;2023-07-29T15:32:23;30.90;28.30
20610;DHT22;10463;52.378;9.688;2023-07-29T15:35:08;30.90;28.30
20610;DHT22;10463;52.378;9.688;2023-07-29T15:37:52;30.90;28.20
20610;DHT22;10463;52.378;9.688;2023-07-29T15:40:38;30.90;28.20
20610;DHT22;10463;52.378;9.688;2023-07-29T15:43:23;30.90;28.20
20610;DHT22;10463;52.378;9.688;2023-07-29T15:46:09;30.90;28.20
20610;DHT22;10463;52.378;9.688;2023-07-29T15:48:54;30.90;28.20
20610;DHT22;10463;52.378;9.688;2023-07-29T15:51:43;30.90;28.20
20610;DHT22;10463;52.378;9.688;2023-07-29T15:54:28;30.90;28.20
20610;DHT22;10463;52.378;9.688;2023-07-29T15:57:12;30.90;28.30
20610;DHT22;10463;52.378;9.688;2023-07-29T15:59:57;30.90;28.30
20610;DHT22;10463;52.378;9.688;2023-07-29T16:02:43;30.90;28.30
20610;DHT22;10463;52.378;9.688;2023-07-29T16:05:28;30.90;28.30
20610;DHT22;10463;52.378;9.688;2023-07-29T16:08:12;30.90;28.30
20610;DHT22;10463;52.378;9.688;2023-07-29T16:10:57;30.80;28.30
20610;DHT22;10463;52.378;9.688;2023-07-29T16:13:42;30.80;28.30
20610;DHT22;10463;52.378;9.688;2023-07-29T16:16:28;30.90;28.30
20610;DHT22;10463;52.378;9.688;2023-07-29T16:19:23;30.80;28.20
20610;DHT22;10463;52.378;9.688;2023-07-29T16:22:08;30.80;28.30
20610;DHT22;10463;52.378;9.688;2023-07-29T16:24:53;30.80;28.20
20610;DHT22;10463;52.378;9.688;2023-07-29T16:27:37;30.80;28.40
20610;DHT22;10463;52.378;9.688;2023-07-29T16:30:23;30.80;28.40
20610;DHT22;10463;52.378;9.688;2023-07-29T16:33:08;30.80;28.50
20610;DHT22;10463;52.378;9.688;2023-07-29T16:35:54;30.80;28.60
20610;DHT22;10463;52.378;9.688;2023-07-29T16:38:39;30.70;28.60
20610;DHT22;10463;52.378;9.688;2023-07-29T16:41:23;30.80;29.20
20610;DHT22;10463;52.378;9.688;2023-07-29T16:44:08;30.80;28.70
20610;DHT22;10463;52.378;9.688;2023-07-29T16:46:53;30.70;28.70
20610;DHT22;10463;52.378;9.688;2023-07-29T16:49:37;30.70;28.70
20610;DHT22;10463;52.378;9.688;2023-07-29T16:52:23;30.70;28.70
20610;DHT22;10463;52.378;9.688;2023-07-29T16:55:09;30.70;28.70
20610;DHT22;10463;52.378;9.688;2023-07-29T16:57:54;30.70;28.70
20610;DHT22;10463;52.378;9.688;2023-07-29T17:00:38;30.70;28.50
20610;DHT22;10463;52.378;9.688;2023-07-29T17:03:24;30.70;28.60
20610;DHT22;10463;52.378;9.688;2023-07-29T17:06:09;30.70;28.70
20610;DHT22;10463;52.378;9.688;2023-07-29T17:08:56;30.70;28.80
20610;DHT22;10463;52.378;9.688;2023-07-29T17:11:40;30.60;28.80
20610;DHT22;10463;52.378;9.688;2023-07-29T17:14:25;30.60;28.90
20610;DHT22;10463;52.378;9.688;2023-07-29T17:17:11;30.60;29.00
20610;DHT22;10463;52.378;9.688;2023-07-29T17:19:55;30.60;29.60
20610;DHT22;10463;52.378;9.688;2023-07-29T17:22:40;30.60;29.10
20610;DHT22;10463;52.378;9.688;2023-07-29T17:25:26;30.60;29.10
20610;DHT22;10463;52.378;9.688;2023-07-29T17:28:13;30.60;29.20
20610;DHT22;10463;52.378;9.688;2023-07-29T17:30:57;30.60;29.20